Time;durP1;ratioP1;P1;durP2;ratioP2;P2;SDS_P1;SDS_P2;PMS_P1;PMS_P2;Temp;Humidity;BMP_temperature;BMP_pressure;BME280_temperature;BME280_humidity;BME280_pressure;Samples;Min_cycle;Max_cycle;Signal;HPM_P1;HPM_P2
2021/12/16 00:34:45;;;;;;;5.47;3.10;;;23.10;56.20;;;;;;31642597;28;20084;-49
2021/12/16 00:49:50;;;;;;;2.45;2.00;;;23.00;56.30;;;;;;31642057;28;20067;-48
2021/12/16 01:36:34;;;;;;;0.73;0.73;;;23.40;56.60;;;;;;31476282;28;20135;-48
2021/12/16 02:37:20;;;;;;;0.20;0.20;;;23.20;57.00;;;;;;31630571;28;20048;-48
2021/12/16 02:52:25;;;;;;;0.68;0.68;;;23.10;57.50;;;;;;31626226;28;20078;-41
2021/12/16 03:07:27;;;;;;;0.40;0.30;;;23.00;57.90;;;;;;31595495;28;20122;-47
2021/12/16 03:37:51;;;;;;;2.08;0.20;;;23.50;58.40;;;;;;31563168;28;20151;-40
2021/12/16 03:52:54;;;;;;;0.10;0.10;;;23.40;57.60;;;;;;31562797;28;20100;-46
2021/12/16 04:07:56;;;;;;;0.17;0.17;;;23.40;57.50;;;;;;31606633;28;20059;-47
2021/12/16 04:23:00;;;;;;;0.20;0.20;;;23.30;57.60;;;;;;31625046;28;20103;-50
2021/12/16 04:38:04;;;;;;;0.10;0.10;;;23.20;57.70;;;;;;31570457;28;20131;-46
2021/12/16 04:53:07;;;;;;;0.50;0.50;;;23.10;57.80;;;;;;31580709;28;20104;-43
2021/12/16 05:08:09;;;;;;;0.10;0.10;;;23.00;57.90;;;;;;31542041;28;20049;-45
2021/12/16 05:38:33;;;;;;;0.47;0.20;;;23.40;58.20;;;;;;31572431;28;20076;-44
2021/12/16 05:53:36;;;;;;;0.10;0.10;;;23.40;57.60;;;;;;31519569;28;20414;-50
2021/12/16 06:08:39;;;;;;;1.52;0.57;;;23.40;57.40;;;;;;31589023;28;20048;-50
2021/12/16 06:39:04;;;;;;;5.15;1.70;;;23.00;56.40;;;;;;31604186;28;20092;-50
2021/12/16 06:54:10;;;;;;;3.22;1.67;;;23.00;56.70;;;;;;31595698;28;20109;-47
2021/12/16 07:09:16;;;;;;;5.55;1.58;;;23.30;56.80;;;;;;31604447;28;20048;-51
2021/12/16 07:24:20;;;;;;;13.20;8.98;;;23.40;56.50;;;;;;31586648;28;20041;-52
2021/12/16 07:39:28;;;;;;;17.35;13.10;;;23.40;56.30;;;;;;31498619;28;20052;-51
2021/12/16 07:54:31;;;;;;;37.40;28.65;;;23.20;56.20;;;;;;31591502;28;20055;-49
2021/12/16 08:09:37;;;;;;;20.35;14.15;;;23.00;53.20;;;;;;31593903;28;20055;-49
2021/12/16 08:24:39;;;;;;;26.38;21.48;;;23.00;53.20;;;;;;31540337;28;20104;-54
2021/12/16 08:39:42;;;;;;;26.35;18.80;;;23.10;51.00;;;;;;31550904;28;20493;-57
2021/12/16 08:54:45;;;;;;;26.20;17.10;;;23.20;52.10;;;;;;31551428;28;20044;-50
2021/12/16 09:09:47;;;;;;;17.08;13.52;;;23.10;52.80;;;;;;31566610;28;20087;-56
2021/12/16 09:24:51;;;;;;;10.35;9.25;;;23.00;53.40;;;;;;31616146;28;20107;-52
2021/12/16 09:39:53;;;;;;;19.05;14.10;;;23.00;53.90;;;;;;31557313;28;20052;-56
2021/12/16 09:54:55;;;;;;;14.93;12.32;;;23.20;52.70;;;;;;31576526;28;20127;-56
2021/12/16 10:09:57;;;;;;;17.08;11.13;;;23.30;52.70;;;;;;31563438;28;20045;-56
2021/12/16 10:25:26;;;;;;;11.32;9.13;;;23.30;53.10;;;;;;31591171;28;20060;-50
2021/12/16 10:40:34;;;;;;;10.90;7.93;;;23.20;53.10;;;;;;31584793;28;20068;-55
2021/12/16 10:55:57;;;;;;;30.35;22.80;;;23.10;53.20;;;;;;31555590;28;20048;-50
2021/12/16 11:11:00;;;;;;;21.17;13.90;;;22.90;51.90;;;;;;31711948;28;20103;-49
2021/12/16 11:26:20;;;;;;;15.95;11.13;;;23.20;52.00;;;;;;31685261;28;20065;-51
2021/12/16 11:41:48;;;;;;;11.30;9.43;;;23.40;52.30;;;;;;31600937;28;20048;-55
2021/12/16 11:56:59;;;;;;;11.07;8.60;;;23.30;53.20;;;;;;31601673;28;20068;-47
2021/12/16 12:12:02;;;;;;;39.30;30.50;;;23.20;52.70;;;;;;31567423;28;20473;-44
2021/12/16 12:27:12;;;;;;;29.42;24.60;;;23.00;50.70;;;;;;31544420;28;20103;-44
2021/12/16 12:42:15;;;;;;;;;;;23.00;51.70;;;;;;31559939;28;20052;-52
2021/12/16 12:57:27;;;;;;;46.88;36.78;;;23.20;52.10;;;;;;31549718;28;19920;-44
2021/12/16 13:13:04;;;;;;;41.95;30.98;;;23.20;50.60;;;;;;31589924;28;20051;-50
2021/12/16 13:28:15;;;;;;;32.80;26.23;;;23.20;50.70;;;;;;31564375;28;20064;-44
2021/12/16 13:43:27;;;;;;;31.23;24.92;;;23.10;51.40;;;;;;31603463;28;20581;-44
2021/12/16 14:59:38;;;;;;;25.20;20.13;;;23.40;53.10;;;;;;31579210;28;20053;-51
2021/12/16 15:45:22;;;;;;;15.50;12.75;;;22.90;48.60;;;;;;31519854;28;20056;-50
2021/12/16 16:00:25;;;;;;;14.55;12.00;;;23.00;48.50;;;;;;31526556;28;20051;-51
2021/12/16 16:15:29;;;;;;;15.93;11.38;;;23.20;47.90;;;;;;31532022;28;20075;-55
2021/12/16 16:30:32;;;;;;;13.10;7.75;;;23.10;48.70;;;;;;31551623;28;20087;-47
2021/12/16 16:45:35;;;;;;;14.02;7.80;;;23.00;47.90;;;;;;31602418;28;20068;-50
2021/12/16 17:00:46;;;;;;;15.68;6.18;;;22.90;48.60;;;;;;31605042;28;20067;-48
2021/12/16 17:30:57;;;;;;;8.85;3.30;;;23.00;50.40;;;;;;31551912;28;20112;-50
2021/12/16 17:46:15;;;;;;;3.95;2.63;;;23.30;51.30;;;;;;31525607;28;20128;-46
2021/12/16 18:01:22;;;;;;;2.85;2.20;;;23.30;51.20;;;;;;31515579;28;20060;-47
2021/12/16 18:16:34;;;;;;;2.50;1.70;;;23.20;51.40;;;;;;31606602;28;20064;-49
2021/12/16 18:31:42;;;;;;;2.35;1.80;;;23.00;52.70;;;;;;31552703;28;20072;-61
2021/12/16 18:48:11;;;;;;;2.47;1.70;;;22.80;54.30;;;;;;31553378;28;20040;-61
2021/12/16 19:03:14;;;;;;;3.50;1.80;;;23.50;53.90;;;;;;31527842;28;20072;-61
2021/12/16 19:18:18;;;;;;;1.63;1.30;;;23.60;53.80;;;;;;31566733;28;20048;-54
2021/12/16 19:33:22;;;;;;;2.08;1.10;;;23.20;54.50;;;;;;31578044;28;20108;-49
2021/12/16 19:48:25;;;;;;;2.10;1.17;;;23.00;55.20;;;;;;31587419;28;20076;-55
2021/12/16 20:03:30;;;;;;;8.30;1.83;;;22.90;55.50;;;;;;31578265;28;20104;-53
2021/12/16 20:18:34;;;;;;;6.65;4.07;;;22.80;55.80;;;;;;31510420;28;20064;-50
2021/12/16 20:33:48;;;;;;;5.68;3.72;;;23.20;54.60;;;;;;31511287;28;20057;-47
2021/12/16 20:48:57;;;;;;;7.10;4.13;;;23.40;55.00;;;;;;31598724;28;20048;-49
2021/12/16 21:04:04;;;;;;;6.63;4.40;;;23.40;54.60;;;;;;31560969;28;20083;-55
2021/12/16 21:19:07;;;;;;;9.57;4.28;;;23.40;54.80;;;;;;31617139;28;20087;-51
2021/12/16 21:34:17;;;;;;;78.43;56.17;;;23.30;55.30;;;;;;31624158;28;20049;-46
2021/12/16 21:49:21;;;;;;;63.22;48.75;;;23.20;54.90;;;;;;31620289;28;20127;-52
2021/12/16 22:04:25;;;;;;;67.82;46.20;;;23.20;55.20;;;;;;31657503;28;20060;-44
2021/12/16 22:19:29;;;;;;;59.42;42.95;;;23.10;55.10;;;;;;31545597;28;20041;-47
2021/12/16 22:34:31;;;;;;;44.63;36.40;;;23.00;55.50;;;;;;31567524;28;20067;-50
2021/12/16 22:49:35;;;;;;;42.92;35.25;;;23.00;56.00;;;;;;31534757;28;20139;-49
2021/12/16 23:04:38;;;;;;;40.85;32.42;;;23.40;55.80;;;;;;31608268;28;20044;-49
2021/12/16 23:35:13;;;;;;;42.00;32.85;;;23.40;55.50;;;;;;31523871;28;20060;-42
